KAEJ

Central Colorado Regional Airport

Buena Vista, Colorado, USA
METAR KAEJ 152215Z AUTO 18012G18KT 7SM -RA OVC100 21/04 A3026 RMK AO2 T02140044
Observed Flight Rules
Aug-15 @ 22:15 UTC (12 minutes ago) Visual Flight Rules
Wind Visibility Clouds Conditions
180° at 12 knots
 Gusting to 18 knots
7 miles
  • Overcast at 10,000' AGL
  • Light Rain
Temperatures Readings
Current 21°C / 70°F
Dewpoint 4°C / 39°F
Humidity 33%
Altimeter 30.26" Hg
Pressure 1025 hPa
Elevation 2422
METAR KAEJ 152215Z AUTO 18012G18KT 7SM -RA OVC100 21/04 A3026 RMK AO2 T02140044
Observed Flight Rules
Aug-15 @ 22:15 UTC
(12 minutes ago)
VFR
Wind Visibility
180° at 12 knots
 Gusting to 18 knots
7 miles
Clouds
  • Overcast at 10,000' AGL
Conditions
  • Light Rain
Temperature Dewpoint
21°C / 70°F 4°C / 39°F
Humidity Altimeter Pressure
33% 30.26" Hg 1025 hPa